首页
METAR-TAF:

METAR-TAF

机场 :

卡斯珀, 怀俄明州, 美国

纬度: 42-53-51N, 经度: 106-28-23W, 海拔: 1630米

当前天气观测

该预报发布于17分钟前的15:53 UTC
风速11节,风向西
温度 -2°C
湿度 74%
气压 1012 hPa
能見度: 16.1公里
天空无云

METAR: KCPR 131553Z 26011KT 10SM CLR M02/M06 A2989 RMK AO2 SLP142 T10171056

时间: 09:10 (16:10 UTC)

预报

该预报发布于4小时和38分钟前的11:32 UTC
预报有效从13日的 12点(UTC)到 14日的 12点(UTC)
风速12节,风向西转西南,有时为20节阵风
能見度: 10公里
散云层高于3000英尺
多云层高于5000英尺
附近有阵雨
从 13日的 1600点(UTC)
风速15节,风向西,有时为25节阵风
能見度: 10公里
散云层高于5000英尺
多云层高于8000英尺
从 13日的 2300点(UTC)
风速10节,风向西南
能見度: 10公里
散云层高于6000英尺
多云层高于10000英尺
从 14日的 0900点(UTC)
风速12节,风向西南,有时为20节阵风
能見度: 10公里
散云层高于1800英尺
多云层高于3000英尺
附近有阵雨

TAF: KCPR 131132Z 1312/1412 24012G20KT P6SM VCSH SCT030 BKN050 FM131600 26015G25KT P6SM SCT050 BKN080 FM132300 23010KT P6SM SCT060 BKN100 FM140900 22012G20KT P6SM VCSH SCT018 BKN030

超过4000个机场的气象观测和天气预报(METAR&TAF报告)。

可查询的气象台以黄色和红色小点在地图上表示。

将鼠标移到小点上方,可查看气象台名称。

然后点击查看天气观测和预报。

如需切换地图:点击带黑十字的绿色按钮放大地图;点击带横线的绿色按钮缩小地图;或者点击绿色箭头查看邻近地区的地图。


METAR-TAF: